CheckWX is a tool to help pilots better visualize weather data.  It is not intended as a substitute for an official pre-flight weather briefing.

11:20:51 UTC

URRP METAR
Platov International Airport
Rostov Oblast, Russian Federation
Current

21 mins ago

URRP 171100Z 25011MPS 9999 FEW///CB 24/15 Q1007 R23/CLRD70 TEMPO -TSRA SCT020CB RMK QFE748/0997
Observed
Sep-17 @ 11:00 UTC
Wind
  • 250° at 21 KTS
Visibility
10,000+ meters
Temperature
24°C / 75°F
Dewpoint
15°C / 59°F
Humidity
57%
Altimeter
29.73" Hg
Pressure
1006.92 hPa
Previous

51 mins ago

URRP 171030Z 24011MPS 9999 FEW///CB 26/15 Q1007 R23/CLRD70 TEMPO -TSRA SCT020CB RMK QFE748/0997
Observed
Sep-17 @ 10:30 UTC
Wind
  • 240° at 21 KTS
Visibility
10,000+ meters
Temperature
26°C / 79°F
Dewpoint
15°C / 59°F
Humidity
51%
Altimeter
29.73" Hg
Pressure
1006.92 hPa
Previous

1 hour ago

URRP 171000Z 25010MPS 9999 FEW///CB 26/15 Q1008 R23/CLRD70 TEMPO 25011G17MPS RMK QFE748/0997
Observed
Sep-17 @ 10:00 UTC
Wind
  • 250° at 19 KTS
Visibility
10,000+ meters
Temperature
26°C / 79°F
Dewpoint
15°C / 59°F
Humidity
51%
Altimeter
29.76" Hg
Pressure
1007.92 hPa